createdAt,value
2023-06-30T00:02:10.743Z,5.47
2023-06-30T00:05:16.862Z,5.90
2023-06-30T00:08:20.429Z,5.30
2023-06-30T00:11:25.169Z,5.20
2023-06-30T00:14:28.150Z,5.50
2023-06-30T00:17:31.190Z,5.30
2023-06-30T00:20:35.136Z,5.10
2023-06-30T00:23:38.233Z,5.57
2023-06-30T00:26:41.834Z,5.72
2023-06-30T00:29:45.807Z,5.37
2023-06-30T00:32:48.919Z,5.67
2023-06-30T00:35:52.033Z,5.50
2023-06-30T00:38:56.084Z,5.00
2023-06-30T00:41:59.169Z,4.70
2023-06-30T00:45:02.398Z,5.50
2023-06-30T00:48:05.627Z,5.53
2023-06-30T00:51:08.951Z,5.20
2023-06-30T00:54:11.920Z,5.57
2023-06-30T00:57:14.889Z,5.80
2023-06-30T01:00:18.483Z,5.57
2023-06-30T01:03:37.367Z,6.27
2023-06-30T01:07:11.179Z,5.60
2023-06-30T01:10:15.460Z,5.55
2023-06-30T01:13:18.484Z,6.07
2023-06-30T01:16:21.603Z,5.43
2023-06-30T01:19:27.840Z,5.90
2023-06-30T01:22:33.324Z,5.32
2023-06-30T01:25:36.639Z,5.78
2023-06-30T01:28:39.713Z,5.85
2023-06-30T01:31:44.945Z,5.67
2023-06-30T01:34:48.058Z,5.73
2023-06-30T01:37:51.519Z,5.80
2023-06-30T01:40:54.894Z,6.00
2023-06-30T01:43:57.892Z,5.45
2023-06-30T01:47:01.153Z,5.43
2023-06-30T01:50:04.648Z,5.23
2023-06-30T01:53:07.626Z,5.93
2023-06-30T01:56:10.920Z,6.18
2023-06-30T01:59:13.882Z,6.30
2023-06-30T02:02:16.956Z,5.83
2023-06-30T02:05:19.983Z,6.27
2023-06-30T02:08:22.985Z,6.18
2023-06-30T02:11:25.980Z,5.57
2023-06-30T02:14:29.180Z,6.22
2023-06-30T02:17:33.339Z,6.37
2023-06-30T02:20:36.358Z,6.47
2023-06-30T02:23:39.304Z,6.05
2023-06-30T02:26:42.725Z,6.72
2023-06-30T02:29:45.671Z,6.20
2023-06-30T02:32:48.807Z,6.40
2023-06-30T02:35:52.150Z,6.67
2023-06-30T02:38:56.692Z,6.72
2023-06-30T02:41:59.753Z,6.38
2023-06-30T02:45:02.759Z,6.87
2023-06-30T02:48:05.960Z,6.67
2023-06-30T02:51:09.753Z,7.13
2023-06-30T02:54:12.768Z,7.97
2023-06-30T02:57:16.111Z,7.40
2023-06-30T03:00:19.717Z,7.20
2023-06-30T03:03:23.226Z,7.40
2023-06-30T03:06:26.720Z,7.50
2023-06-30T03:09:29.873Z,7.85
2023-06-30T03:12:32.899Z,8.27
2023-06-30T03:15:36.093Z,8.37
2023-06-30T03:18:39.172Z,9.03
2023-06-30T03:21:42.194Z,10.70
2023-06-30T03:24:45.246Z,8.65
2023-06-30T03:27:48.283Z,8.15
2023-06-30T03:30:51.842Z,9.20
2023-06-30T03:33:55.785Z,8.63
2023-06-30T03:36:58.748Z,8.05
2023-06-30T03:40:02.119Z,8.23
2023-06-30T03:43:05.692Z,7.85
2023-06-30T03:46:11.392Z,7.97
2023-06-30T03:49:14.521Z,8.17
2023-06-30T03:52:17.635Z,7.70
2023-06-30T03:55:20.643Z,8.27
2023-06-30T03:58:23.677Z,7.65
2023-06-30T04:01:27.400Z,7.53
2023-06-30T04:04:30.510Z,8.20
2023-06-30T04:07:33.792Z,7.70
2023-06-30T04:10:36.888Z,7.28
2023-06-30T04:13:39.885Z,7.55
2023-06-30T04:16:43.091Z,7.33
2023-06-30T04:19:46.196Z,6.83
2023-06-30T04:22:49.307Z,6.57
2023-06-30T04:25:52.321Z,6.47
2023-06-30T04:28:55.336Z,6.55
2023-06-30T04:31:58.398Z,5.50
2023-06-30T04:35:01.502Z,5.73
2023-06-30T04:38:04.492Z,5.35
2023-06-30T04:41:07.500Z,5.43
2023-06-30T04:44:11.103Z,5.70
2023-06-30T04:47:14.166Z,6.13
2023-06-30T04:50:17.297Z,6.37
2023-06-30T04:53:20.467Z,7.10
2023-06-30T04:56:23.471Z,7.40
2023-06-30T04:59:26.468Z,7.30
2023-06-30T05:02:29.523Z,8.80
2023-06-30T05:05:33.138Z,8.10
2023-06-30T05:08:36.110Z,6.90
2023-06-30T05:11:39.181Z,7.53
2023-06-30T05:14:42.166Z,6.60
2023-06-30T05:17:45.219Z,7.03
2023-06-30T05:20:48.224Z,7.03
2023-06-30T05:23:51.315Z,7.70
2023-06-30T05:26:55.355Z,7.15
2023-06-30T05:29:58.329Z,6.97
2023-06-30T05:33:01.392Z,7.37
2023-06-30T05:36:04.693Z,8.30
2023-06-30T05:39:07.846Z,8.10
2023-06-30T05:42:10.875Z,8.95
2023-06-30T05:45:13.884Z,9.23
2023-06-30T05:48:17.134Z,8.77
2023-06-30T05:51:20.532Z,8.23
2023-06-30T05:54:23.515Z,8.40
2023-06-30T05:57:28.068Z,9.43
2023-06-30T06:00:31.046Z,8.27
2023-06-30T06:03:34.430Z,9.53
2023-06-30T06:06:38.264Z,8.00
2023-06-30T06:09:41.381Z,8.95
2023-06-30T06:12:44.421Z,8.30
2023-06-30T06:15:47.484Z,7.95
2023-06-30T06:18:50.920Z,7.67
2023-06-30T06:21:53.896Z,8.00
2023-06-30T06:24:56.967Z,7.53
2023-06-30T06:27:59.991Z,7.32
2023-06-30T06:31:03.028Z,7.25
2023-06-30T06:34:06.056Z,6.63
2023-06-30T06:37:09.079Z,6.60
2023-06-30T06:40:12.340Z,7.00
2023-06-30T06:43:15.375Z,6.60
2023-06-30T06:46:18.495Z,6.70
2023-06-30T06:49:21.523Z,5.80
2023-06-30T06:52:24.510Z,5.10
2023-06-30T06:55:27.520Z,5.78
2023-06-30T06:58:31.667Z,5.50
2023-06-30T07:01:35.003Z,5.35
2023-06-30T07:04:38.067Z,5.93
2023-06-30T07:07:41.112Z,5.67
2023-06-30T07:10:45.627Z,5.20
2023-06-30T07:13:48.667Z,4.70
2023-06-30T07:16:52.353Z,4.55
2023-06-30T07:19:55.378Z,4.17
2023-06-30T07:22:58.499Z,3.97
2023-06-30T07:26:01.454Z,4.57
2023-06-30T07:29:04.436Z,4.57
2023-06-30T07:32:07.735Z,4.70
2023-06-30T07:35:10.777Z,4.90
2023-06-30T07:38:13.821Z,5.20
2023-06-30T07:41:16.835Z,5.55
2023-06-30T07:44:21.028Z,5.97
2023-06-30T07:47:24.102Z,5.38
2023-06-30T07:50:27.167Z,5.60
2023-06-30T07:53:30.266Z,5.20
2023-06-30T07:56:33.258Z,5.18
2023-06-30T07:59:36.981Z,5.70
2023-06-30T08:02:40.043Z,5.80
2023-06-30T08:05:43.344Z,5.10
2023-06-30T08:08:46.455Z,4.23
2023-06-30T08:11:49.482Z,3.92
2023-06-30T08:14:53.221Z,3.55
2023-06-30T08:17:58.661Z,3.25
2023-06-30T08:21:03.182Z,3.67
2023-06-30T08:24:06.396Z,3.17
2023-06-30T08:27:09.611Z,3.17
2023-06-30T08:30:12.715Z,4.18
2023-06-30T08:33:26.330Z,3.38
2023-06-30T08:36:38.659Z,3.57
2023-06-30T08:39:41.641Z,3.13
2023-06-30T08:42:45.708Z,3.28
2023-06-30T08:45:49.925Z,2.85
2023-06-30T08:48:53.131Z,3.10
2023-06-30T08:51:59.848Z,3.37
2023-06-30T08:55:04.072Z,3.60
2023-06-30T08:58:17.370Z,3.67
2023-06-30T09:01:21.128Z,3.53
2023-06-30T09:04:24.313Z,3.90
2023-06-30T09:07:27.911Z,3.60
2023-06-30T09:10:35.377Z,3.97
2023-06-30T09:13:39.359Z,3.90
2023-06-30T09:16:42.447Z,3.65
2023-06-30T09:19:46.148Z,3.30
2023-06-30T09:22:55.260Z,3.30
2023-06-30T09:26:01.632Z,3.50
2023-06-30T09:29:08.368Z,3.70
2023-06-30T09:32:11.412Z,3.42
2023-06-30T09:35:18.301Z,3.00
2023-06-30T09:38:22.377Z,3.70
2023-06-30T09:41:27.746Z,3.20
2023-06-30T09:44:30.964Z,3.35
2023-06-30T09:47:34.104Z,3.47
2023-06-30T09:50:37.094Z,3.28
2023-06-30T09:53:41.300Z,3.50
2023-06-30T09:56:45.695Z,3.90
2023-06-30T09:59:48.680Z,3.13
2023-06-30T10:03:04.029Z,3.30
2023-06-30T10:06:07.265Z,4.00
2023-06-30T10:09:10.377Z,3.37
2023-06-30T10:12:13.396Z,3.37
2023-06-30T10:15:16.458Z,3.70
2023-06-30T10:18:19.609Z,3.70
2023-06-30T10:21:22.973Z,3.50
2023-06-30T10:24:27.992Z,4.00
2023-06-30T10:27:30.998Z,3.93
2023-06-30T10:30:34.352Z,3.53
2023-06-30T10:33:38.048Z,3.92
2023-06-30T10:36:41.292Z,3.53
2023-06-30T10:39:44.643Z,3.00
2023-06-30T10:42:48.773Z,3.13
2023-06-30T10:46:10.431Z,3.58
2023-06-30T10:49:34.825Z,3.40
2023-06-30T10:52:37.939Z,2.92
2023-06-30T10:55:44.227Z,3.10
2023-06-30T10:58:47.254Z,3.10
2023-06-30T11:02:13.028Z,3.97
2023-06-30T11:05:23.543Z,4.20
2023-06-30T11:08:27.308Z,4.00
2023-06-30T11:11:30.666Z,3.83
2023-06-30T11:14:33.842Z,4.27
2023-06-30T11:17:57.713Z,4.03
2023-06-30T11:21:04.993Z,4.20
2023-06-30T11:24:16.365Z,3.88
2023-06-30T11:27:20.177Z,4.37
2023-06-30T11:30:23.730Z,3.57
2023-06-30T11:33:26.681Z,4.28
2023-06-30T11:36:32.324Z,4.18
2023-06-30T11:39:38.161Z,3.80
2023-06-30T11:42:41.664Z,4.30
2023-06-30T11:45:46.239Z,3.47
2023-06-30T11:48:50.027Z,3.90
2023-06-30T11:51:53.058Z,4.68
2023-06-30T11:54:57.780Z,4.55
2023-06-30T11:58:02.553Z,3.97
2023-06-30T12:01:06.393Z,4.80
2023-06-30T12:04:09.882Z,4.85
2023-06-30T12:07:15.118Z,4.32
2023-06-30T12:10:18.558Z,4.20
2023-06-30T12:13:21.540Z,4.70
2023-06-30T12:16:27.802Z,4.30
2023-06-30T12:19:30.974Z,4.22
2023-06-30T12:22:36.600Z,4.53
2023-06-30T12:25:39.600Z,4.78
2023-06-30T12:28:43.549Z,4.40
2023-06-30T12:31:48.405Z,4.10
2023-06-30T12:34:57.695Z,4.88
2023-06-30T12:38:01.007Z,4.95
2023-06-30T12:41:04.698Z,4.60
2023-06-30T12:44:08.547Z,4.40
2023-06-30T12:47:11.514Z,5.20
2023-06-30T12:50:14.512Z,4.82
2023-06-30T12:53:17.508Z,4.55
2023-06-30T12:56:20.579Z,4.78
2023-06-30T12:59:24.267Z,3.70
2023-06-30T13:02:27.361Z,3.50
2023-06-30T13:05:30.390Z,3.78
2023-06-30T13:08:33.371Z,3.50
2023-06-30T13:11:36.451Z,3.97
2023-06-30T13:14:39.435Z,3.70
2023-06-30T13:17:43.561Z,3.38
2023-06-30T13:20:46.641Z,3.83
2023-06-30T13:23:50.632Z,3.80
2023-06-30T13:26:53.648Z,3.50
2023-06-30T13:29:57.586Z,3.70
2023-06-30T13:33:00.592Z,3.83
2023-06-30T13:36:03.827Z,4.53
2023-06-30T13:39:06.867Z,3.55
2023-06-30T13:42:10.497Z,3.70
2023-06-30T13:45:13.568Z,3.30
2023-06-30T13:48:16.681Z,3.85
2023-06-30T13:51:19.704Z,4.13
2023-06-30T13:54:23.480Z,3.80
2023-06-30T13:57:27.407Z,3.13
2023-06-30T14:00:31.322Z,3.30
2023-06-30T14:03:36.661Z,3.00
2023-06-30T14:06:39.709Z,3.72
2023-06-30T14:09:42.854Z,3.20
2023-06-30T14:12:46.031Z,3.45
2023-06-30T14:15:49.172Z,3.63
2023-06-30T14:18:52.849Z,3.67
2023-06-30T14:21:55.868Z,3.58
2023-06-30T14:24:58.850Z,3.40
2023-06-30T14:28:02.075Z,3.88
2023-06-30T14:31:05.845Z,3.70
2023-06-30T14:34:10.543Z,3.33
2023-06-30T14:37:13.637Z,3.17
2023-06-30T14:40:16.782Z,3.67
2023-06-30T14:43:19.785Z,3.75
2023-06-30T14:46:22.792Z,4.07
2023-06-30T14:49:25.796Z,4.05
2023-06-30T14:52:28.762Z,4.03
2023-06-30T14:55:31.793Z,3.88
2023-06-30T14:58:34.841Z,4.00
2023-06-30T15:01:37.872Z,3.60
2023-06-30T15:04:40.942Z,3.40
2023-06-30T15:07:46.998Z,4.13
2023-06-30T15:10:50.672Z,3.72
2023-06-30T15:13:53.625Z,4.22
2023-06-30T15:16:56.630Z,3.93
2023-06-30T15:19:59.845Z,4.07
2023-06-30T15:23:03.718Z,4.07
2023-06-30T15:26:07.134Z,4.32
2023-06-30T15:29:10.786Z,3.83
2023-06-30T15:32:13.842Z,3.40
2023-06-30T15:35:16.972Z,3.33
2023-06-30T15:38:19.944Z,3.75
2023-06-30T15:41:23.688Z,3.72
2023-06-30T15:44:26.673Z,3.20
2023-06-30T15:47:29.745Z,3.40
2023-06-30T15:50:33.382Z,3.40
2023-06-30T15:53:36.510Z,3.67
2023-06-30T15:56:39.511Z,3.28
2023-06-30T15:59:42.478Z,3.50
2023-06-30T16:02:45.616Z,2.93
2023-06-30T16:05:49.048Z,3.08
2023-06-30T16:08:52.400Z,3.10
2023-06-30T16:11:55.393Z,3.33
2023-06-30T16:14:58.399Z,3.17
2023-06-30T16:18:01.458Z,3.10
2023-06-30T16:21:04.470Z,3.10
2023-06-30T16:24:07.786Z,3.30
2023-06-30T16:27:10.767Z,2.65
2023-06-30T16:30:21.900Z,3.30
2023-06-30T16:33:25.127Z,3.30
2023-06-30T16:36:28.184Z,2.83
2023-06-30T16:39:31.239Z,3.05
2023-06-30T16:42:34.267Z,2.88
2023-06-30T16:45:37.315Z,3.33
2023-06-30T16:48:40.357Z,3.43
2023-06-30T16:51:43.765Z,3.95
2023-06-30T16:54:46.788Z,3.60
2023-06-30T16:57:49.782Z,3.17
2023-06-30T17:00:52.970Z,2.92
2023-06-30T17:03:56.030Z,2.70
2023-06-30T17:06:58.982Z,2.80
2023-06-30T17:10:02.090Z,3.00
2023-06-30T17:13:06.727Z,3.10
2023-06-30T17:16:09.709Z,3.25
2023-06-30T17:19:13.941Z,3.30
2023-06-30T17:22:17.050Z,2.97
2023-06-30T17:25:20.102Z,2.80
2023-06-30T17:28:23.110Z,2.90
2023-06-30T17:31:26.180Z,2.97
2023-06-30T17:34:29.319Z,2.70
2023-06-30T17:37:32.388Z,2.92
2023-06-30T17:40:35.472Z,2.78
2023-06-30T17:43:38.626Z,3.08
2023-06-30T17:46:41.792Z,2.90
2023-06-30T17:49:44.774Z,3.23
2023-06-30T17:52:47.733Z,4.75
2023-06-30T17:55:53.756Z,3.05
2023-06-30T17:58:56.751Z,2.65
2023-06-30T18:01:59.973Z,4.05
2023-06-30T18:05:03.163Z,3.00
2023-06-30T18:08:06.356Z,3.10
2023-06-30T18:11:10.122Z,3.92
2023-06-30T18:14:13.184Z,3.50
2023-06-30T18:17:16.503Z,3.20
2023-06-30T18:20:19.606Z,2.30
2023-06-30T18:23:22.639Z,2.55
2023-06-30T18:26:25.679Z,2.30
2023-06-30T18:29:28.701Z,2.47
2023-06-30T18:32:33.131Z,2.38
2023-06-30T18:35:36.159Z,2.77
2023-06-30T18:38:39.164Z,2.50
2023-06-30T18:41:43.329Z,2.40
2023-06-30T18:44:46.433Z,2.47
2023-06-30T18:47:49.488Z,2.83
2023-06-30T18:50:52.636Z,2.90
2023-06-30T18:53:56.004Z,2.67
2023-06-30T18:56:59.034Z,2.83
2023-06-30T19:00:02.651Z,2.70
2023-06-30T19:03:05.879Z,3.33
2023-06-30T19:06:08.953Z,2.53
2023-06-30T19:09:12.460Z,2.90
2023-06-30T19:12:15.940Z,3.05
2023-06-30T19:15:19.402Z,2.95
2023-06-30T19:18:22.779Z,2.90
2023-06-30T19:21:25.883Z,3.03
2023-06-30T19:24:28.902Z,3.65
2023-06-30T19:27:31.939Z,3.60
2023-06-30T19:30:35.158Z,3.30
2023-06-30T19:33:38.364Z,3.35
2023-06-30T19:36:41.434Z,3.10
2023-06-30T19:39:45.527Z,3.53
2023-06-30T19:42:48.535Z,3.40
2023-06-30T19:45:51.594Z,3.42
2023-06-30T19:48:54.574Z,3.30
2023-06-30T19:51:57.922Z,3.67
2023-06-30T19:55:01.065Z,3.58
2023-06-30T19:58:04.117Z,3.95
2023-06-30T20:01:07.173Z,4.80
2023-06-30T20:04:11.273Z,4.18
2023-06-30T20:07:14.390Z,3.17
2023-06-30T20:10:17.521Z,3.70
2023-06-30T20:13:20.506Z,3.60
2023-06-30T20:16:23.527Z,3.28
2023-06-30T20:19:26.609Z,3.42
2023-06-30T20:22:31.440Z,3.30
2023-06-30T20:25:34.404Z,3.25
2023-06-30T20:28:38.187Z,3.42
2023-06-30T20:31:41.332Z,3.67
2023-06-30T20:34:44.367Z,3.83
2023-06-30T20:37:48.042Z,3.20
2023-06-30T20:40:51.165Z,3.42
2023-06-30T20:43:54.239Z,3.90
2023-06-30T20:46:57.391Z,4.00
2023-06-30T20:50:01.006Z,4.10
2023-06-30T20:53:04.013Z,3.73
2023-06-30T20:56:07.021Z,3.75
2023-06-30T20:59:09.982Z,3.88
2023-06-30T21:02:13.164Z,3.80
2023-06-30T21:05:16.255Z,4.28
2023-06-30T21:08:19.218Z,4.10
2023-06-30T21:11:22.711Z,3.92
2023-06-30T21:14:25.720Z,4.10
2023-06-30T21:17:28.797Z,4.40
2023-06-30T21:20:31.842Z,4.50
2023-06-30T21:23:34.813Z,4.60
2023-06-30T21:26:39.120Z,4.57
2023-06-30T21:29:42.101Z,4.30
2023-06-30T21:32:45.538Z,4.30
2023-06-30T21:35:48.558Z,4.57
2023-06-30T21:38:51.553Z,4.90
2023-06-30T21:41:54.526Z,4.40
2023-06-30T21:44:57.487Z,4.50
2023-06-30T21:48:00.655Z,3.92
2023-06-30T21:51:03.772Z,4.47
2023-06-30T21:54:07.083Z,4.60
2023-06-30T21:57:10.094Z,4.78
2023-06-30T22:00:13.700Z,4.47
2023-06-30T22:03:16.849Z,4.82
2023-06-30T22:06:19.956Z,4.80
2023-06-30T22:09:22.977Z,4.30
2023-06-30T22:12:26.228Z,4.60
2023-06-30T22:15:29.224Z,4.97
2023-06-30T22:18:32.355Z,5.10
2023-06-30T22:21:35.346Z,5.25
2023-06-30T22:24:38.431Z,5.00
2023-06-30T22:27:42.547Z,5.13
2023-06-30T22:30:45.774Z,5.70
2023-06-30T22:33:49.082Z,5.32
2023-06-30T22:36:52.051Z,5.57
2023-06-30T22:39:55.050Z,5.70
2023-06-30T22:42:58.015Z,6.05
2023-06-30T22:46:01.029Z,5.85
2023-06-30T22:49:04.769Z,6.80
2023-06-30T22:52:08.382Z,6.38
2023-06-30T22:55:11.392Z,6.17
2023-06-30T22:58:14.356Z,6.78
2023-06-30T23:01:17.972Z,7.10
2023-06-30T23:04:21.261Z,7.10
2023-06-30T23:07:24.439Z,7.32
2023-06-30T23:10:27.439Z,7.73
2023-06-30T23:13:30.423Z,7.57
2023-06-30T23:16:38.379Z,8.35
2023-06-30T23:19:42.709Z,7.40
2023-06-30T23:22:49.918Z,6.70
2023-06-30T23:25:53.985Z,6.23
2023-06-30T23:28:58.203Z,6.10
2023-06-30T23:32:07.103Z,5.63
2023-06-30T23:35:10.125Z,5.63
2023-06-30T23:38:13.132Z,5.90
2023-06-30T23:41:16.877Z,5.97
2023-06-30T23:44:19.888Z,5.80
2023-06-30T23:47:22.973Z,6.38
2023-06-30T23:50:25.991Z,6.70
2023-06-30T23:53:28.969Z,6.60
2023-06-30T23:56:31.945Z,6.73
2023-06-30T23:59:34.953Z,6.95
